createdAt,value
2022-11-29T00:02:06.596Z,14.83
2022-11-29T00:04:33.587Z,14.67
2022-11-29T00:07:00.486Z,14.70
2022-11-29T00:09:28.652Z,15.50
2022-11-29T00:11:59.821Z,16.45
2022-11-29T00:14:27.539Z,17.33
2022-11-29T00:16:58.540Z,18.11
2022-11-29T00:19:25.404Z,18.06
2022-11-29T00:21:57.415Z,16.41
2022-11-29T00:24:24.601Z,16.38
2022-11-29T00:26:53.143Z,15.75
2022-11-29T00:29:20.823Z,15.01
2022-11-29T00:31:48.756Z,14.29
2022-11-29T00:34:18.360Z,13.43
2022-11-29T00:36:46.349Z,13.92
2022-11-29T00:39:13.533Z,14.66
2022-11-29T00:41:40.744Z,14.31
2022-11-29T00:44:19.681Z,14.79
2022-11-29T00:46:50.858Z,14.98
2022-11-29T00:49:18.303Z,15.25
2022-11-29T00:51:46.876Z,15.76
2022-11-29T00:54:14.129Z,15.76
2022-11-29T00:56:42.804Z,15.59
2022-11-29T00:59:13.758Z,15.50
2022-11-29T01:01:41.006Z,15.89
2022-11-29T01:04:08.084Z,15.22
2022-11-29T01:06:36.187Z,15.05
2022-11-29T01:09:04.227Z,15.12
2022-11-29T01:11:33.093Z,15.22
2022-11-29T01:14:02.242Z,14.74
2022-11-29T01:16:31.503Z,14.88
2022-11-29T01:18:58.277Z,13.70
2022-11-29T01:21:25.666Z,14.22
2022-11-29T01:23:54.570Z,14.05
2022-11-29T01:26:23.815Z,15.00
2022-11-29T01:28:52.618Z,14.97
2022-11-29T01:31:21.667Z,15.91
2022-11-29T01:33:53.146Z,16.84
2022-11-29T01:36:20.154Z,17.24
2022-11-29T01:38:47.087Z,15.99
2022-11-29T01:41:17.086Z,14.96
2022-11-29T01:43:59.935Z,14.72
2022-11-29T01:46:27.982Z,14.66
2022-11-29T01:49:01.743Z,14.70
2022-11-29T01:51:29.752Z,14.34
2022-11-29T01:53:57.818Z,13.87
2022-11-29T01:56:28.018Z,13.68
2022-11-29T01:58:56.378Z,13.49
2022-11-29T02:01:23.884Z,13.48
2022-11-29T02:03:53.636Z,13.30
2022-11-29T02:06:22.634Z,13.47
2022-11-29T02:08:49.992Z,13.85
2022-11-29T02:11:44.632Z,14.48
2022-11-29T02:16:58.145Z,13.90
2022-11-29T02:19:55.792Z,13.54
2022-11-29T02:22:30.098Z,13.00
2022-11-29T02:25:14.970Z,13.01
2022-11-29T02:28:06.569Z,13.77
2022-11-29T02:30:55.668Z,13.31
2022-11-29T02:33:59.764Z,13.46
2022-11-29T02:36:53.529Z,13.23
2022-11-29T02:39:46.287Z,12.41
2022-11-29T02:42:31.015Z,12.36
2022-11-29T02:45:11.503Z,12.26
2022-11-29T02:47:55.558Z,12.12
2022-11-29T02:50:38.969Z,12.12
2022-11-29T02:53:17.212Z,11.64
2022-11-29T02:55:55.798Z,12.37
2022-11-29T02:58:33.267Z,12.08
2022-11-29T03:01:11.518Z,12.27
2022-11-29T03:03:45.788Z,12.81
2022-11-29T03:06:24.532Z,12.70
2022-11-29T03:09:00.926Z,12.57
2022-11-29T03:11:34.537Z,12.44
2022-11-29T03:14:17.482Z,11.99
2022-11-29T03:16:51.628Z,11.65
2022-11-29T03:19:36.451Z,11.53
2022-11-29T03:22:17.629Z,11.73
2022-11-29T03:24:54.242Z,11.99
2022-11-29T03:27:29.066Z,11.10
2022-11-29T03:29:59.322Z,11.19
2022-11-29T03:32:33.113Z,10.66
2022-11-29T03:35:06.503Z,9.47
2022-11-29T03:37:47.664Z,10.12
2022-11-29T03:40:19.743Z,10.90
2022-11-29T03:42:53.018Z,10.33
2022-11-29T03:45:25.389Z,10.52
2022-11-29T03:48:01.046Z,10.44
2022-11-29T03:50:34.952Z,10.38
2022-11-29T03:53:15.198Z,9.96
2022-11-29T03:55:55.512Z,9.68
2022-11-29T03:58:47.647Z,9.30
2022-11-29T04:01:39.559Z,8.81
2022-11-29T04:04:24.375Z,8.54
2022-11-29T04:07:07.042Z,8.74
2022-11-29T04:10:06.375Z,8.95
2022-11-29T04:12:53.417Z,8.98
2022-11-29T04:15:57.942Z,8.89
2022-11-29T04:19:07.701Z,8.66
2022-11-29T04:21:55.202Z,9.32
2022-11-29T04:25:06.381Z,9.45
2022-11-29T04:27:59.533Z,9.17
2022-11-29T04:30:36.310Z,8.73
2022-11-29T04:33:38.083Z,8.57
2022-11-29T04:36:32.702Z,8.89
2022-11-29T04:42:35.502Z,8.74
2022-11-29T04:45:30.596Z,8.50
2022-11-29T04:48:16.632Z,8.62
2022-11-29T04:50:54.050Z,8.75
2022-11-29T04:53:47.855Z,8.69
2022-11-29T04:56:23.223Z,7.37
2022-11-29T04:58:58.291Z,7.76
2022-11-29T05:01:37.215Z,8.09
2022-11-29T05:04:21.520Z,9.37
2022-11-29T05:07:00.027Z,9.22
2022-11-29T05:09:36.755Z,9.52
2022-11-29T05:12:12.151Z,9.00
2022-11-29T05:14:55.424Z,9.24
2022-11-29T05:17:33.413Z,10.12
2022-11-29T05:20:13.169Z,9.74
2022-11-29T05:22:52.645Z,9.98
2022-11-29T05:25:44.848Z,9.61
2022-11-29T05:28:21.215Z,9.62
2022-11-29T05:31:09.921Z,8.92
2022-11-29T05:33:56.957Z,8.69
2022-11-29T05:36:33.135Z,8.04
2022-11-29T05:39:21.200Z,8.68
2022-11-29T05:42:05.212Z,8.46
2022-11-29T05:44:36.708Z,9.23
2022-11-29T05:47:07.724Z,9.11
2022-11-29T05:49:41.501Z,9.78
2022-11-29T05:52:25.044Z,9.28
2022-11-29T05:55:17.166Z,9.49
2022-11-29T05:57:54.269Z,9.23
2022-11-29T06:00:22.702Z,9.38
2022-11-29T06:02:59.001Z,9.16
2022-11-29T06:05:35.600Z,9.61
2022-11-29T06:08:08.262Z,10.19
2022-11-29T06:10:40.363Z,10.35
2022-11-29T06:13:21.390Z,10.08
2022-11-29T06:16:16.226Z,9.90
2022-11-29T06:19:21.730Z,11.05
2022-11-29T06:22:02.962Z,11.81
2022-11-29T06:24:46.250Z,11.96
2022-11-29T06:27:39.201Z,11.97
2022-11-29T06:30:11.057Z,12.44
2022-11-29T06:32:48.997Z,12.56
2022-11-29T06:35:35.971Z,12.59
2022-11-29T06:38:17.455Z,12.87
2022-11-29T06:40:50.534Z,12.57
2022-11-29T06:43:18.044Z,12.49
2022-11-29T06:45:50.587Z,12.77
2022-11-29T06:48:24.221Z,13.12
2022-11-29T06:51:00.316Z,13.66
2022-11-29T06:53:41.171Z,13.13
2022-11-29T06:59:54.370Z,12.64
2022-11-29T07:02:31.970Z,12.23
2022-11-29T07:05:15.884Z,12.35
2022-11-29T07:07:43.301Z,11.72
2022-11-29T07:10:17.903Z,11.61
2022-11-29T07:12:51.940Z,11.63
2022-11-29T07:15:22.162Z,10.76
2022-11-29T07:18:13.021Z,10.94
2022-11-29T07:20:51.890Z,11.09
2022-11-29T07:23:29.521Z,11.26
2022-11-29T07:26:10.991Z,11.93
2022-11-29T07:28:54.187Z,12.67
2022-11-29T07:31:33.062Z,13.08
2022-11-29T07:34:10.624Z,12.67
2022-11-29T07:36:45.271Z,13.14
2022-11-29T07:39:25.266Z,13.47
2022-11-29T07:42:06.053Z,12.97
2022-11-29T07:44:38.886Z,12.90
2022-11-29T07:47:06.031Z,13.18
2022-11-29T07:49:32.832Z,13.18
2022-11-29T07:52:02.343Z,12.81
2022-11-29T07:54:31.590Z,12.76
2022-11-29T07:57:00.933Z,12.92
2022-11-29T07:59:27.691Z,12.97
2022-11-29T08:01:56.384Z,12.42
2022-11-29T08:04:23.825Z,11.90
2022-11-29T08:06:51.143Z,11.83
2022-11-29T08:09:19.044Z,10.83
2022-11-29T08:11:45.954Z,10.66
2022-11-29T08:14:17.422Z,10.26
2022-11-29T08:16:44.777Z,9.77
2022-11-29T08:19:11.710Z,10.22
2022-11-29T08:21:38.506Z,9.84
2022-11-29T08:24:06.512Z,9.96
2022-11-29T08:26:34.009Z,10.95
2022-11-29T08:29:03.170Z,12.13
2022-11-29T08:31:31.360Z,12.03
2022-11-29T08:36:31.994Z,13.47
2022-11-29T08:39:05.953Z,13.26
2022-11-29T08:41:42.967Z,12.10
2022-11-29T08:46:39.237Z,10.86
2022-11-29T08:49:07.814Z,10.92
2022-11-29T08:51:35.156Z,10.64
2022-11-29T08:54:04.540Z,10.26
2022-11-29T08:59:06.795Z,10.41
2022-11-29T09:01:38.775Z,10.44
2022-11-29T09:04:11.615Z,10.00
2022-11-29T09:06:40.786Z,10.03
2022-11-29T09:09:08.313Z,9.27
2022-11-29T09:11:36.524Z,9.05
2022-11-29T09:14:05.993Z,8.29
2022-11-29T09:16:37.707Z,8.50
2022-11-29T09:19:07.830Z,8.86
2022-11-29T09:21:35.509Z,9.01
2022-11-29T09:24:07.419Z,8.25
2022-11-29T09:26:36.395Z,8.49
2022-11-29T09:29:05.977Z,9.46
2022-11-29T09:31:34.808Z,9.69
2022-11-29T09:34:03.515Z,10.03
2022-11-29T09:36:32.325Z,9.32
2022-11-29T09:39:00.885Z,9.42
2022-11-29T09:41:48.547Z,9.19
2022-11-29T09:44:29.815Z,9.16
2022-11-29T09:47:14.519Z,8.82
2022-11-29T09:50:02.745Z,8.16
2022-11-29T09:52:49.454Z,7.81
2022-11-29T09:55:45.286Z,8.27
2022-11-29T09:58:22.979Z,7.85
2022-11-29T10:00:54.129Z,9.79
2022-11-29T10:03:26.386Z,11.13
2022-11-29T10:05:59.179Z,10.26
2022-11-29T10:08:34.163Z,9.93
2022-11-29T10:11:24.373Z,10.43
2022-11-29T10:13:57.927Z,10.64
2022-11-29T10:16:34.730Z,10.97
2022-11-29T10:19:12.817Z,10.82
2022-11-29T10:21:43.685Z,11.33
2022-11-29T10:24:16.944Z,13.70
2022-11-29T10:26:44.135Z,15.17
2022-11-29T10:29:15.185Z,17.62
2022-11-29T10:31:44.274Z,15.68
2022-11-29T10:34:13.975Z,14.10
2022-11-29T10:36:44.399Z,11.68
2022-11-29T10:39:18.886Z,10.55
2022-11-29T10:41:46.335Z,10.04
2022-11-29T10:44:16.001Z,10.73
2022-11-29T10:46:42.982Z,10.63
2022-11-29T10:49:17.498Z,10.25
2022-11-29T10:51:45.721Z,9.94
2022-11-29T10:54:43.115Z,9.33
2022-11-29T10:57:15.355Z,8.91
2022-11-29T11:00:01.452Z,9.42
2022-11-29T11:02:28.847Z,9.57
2022-11-29T11:04:59.429Z,10.95
2022-11-29T11:07:31.942Z,10.04
2022-11-29T11:10:03.035Z,10.99
2022-11-29T11:12:32.633Z,10.85
2022-11-29T11:15:34.624Z,10.62
2022-11-29T11:18:03.718Z,11.07
2022-11-29T11:20:35.567Z,10.90
2022-11-29T11:23:20.797Z,10.37
2022-11-29T11:25:56.996Z,10.34
2022-11-29T11:28:27.212Z,11.43
2022-11-29T11:30:58.907Z,12.92
2022-11-29T11:33:28.421Z,11.63
2022-11-29T11:36:05.690Z,11.54
2022-11-29T11:38:33.167Z,10.55
2022-11-29T11:41:14.650Z,8.99
2022-11-29T11:43:42.309Z,9.45
2022-11-29T11:46:10.857Z,11.09
2022-11-29T11:48:41.156Z,12.00
2022-11-29T11:51:21.330Z,11.49
2022-11-29T11:53:52.558Z,10.73
2022-11-29T11:56:34.784Z,10.34
2022-11-29T11:59:04.191Z,9.77
2022-11-29T12:01:38.347Z,9.33
2022-11-29T12:04:12.982Z,9.52
2022-11-29T12:06:46.346Z,10.09
2022-11-29T12:09:25.075Z,9.41
2022-11-29T12:12:12.195Z,9.30
2022-11-29T12:14:53.355Z,9.07
2022-11-29T12:17:32.036Z,9.12
2022-11-29T12:20:20.119Z,8.82
2022-11-29T12:22:58.966Z,8.94
2022-11-29T12:25:30.725Z,9.46
2022-11-29T12:28:12.037Z,9.70
2022-11-29T12:30:52.004Z,9.08
2022-11-29T12:33:34.397Z,8.86
2022-11-29T12:36:33.308Z,9.26
2022-11-29T12:39:16.479Z,10.28
2022-11-29T12:41:54.002Z,10.95
2022-11-29T12:44:38.924Z,11.62
2022-11-29T12:50:08.193Z,11.28
2022-11-29T12:52:48.887Z,10.75
2022-11-29T12:55:26.000Z,10.80
2022-11-29T12:58:03.708Z,11.28
2022-11-29T13:00:47.362Z,12.21
2022-11-29T13:03:23.620Z,12.27
2022-11-29T13:06:12.745Z,11.97
2022-11-29T13:08:53.806Z,11.54
2022-11-29T13:11:26.933Z,11.17
2022-11-29T13:14:20.129Z,11.21
2022-11-29T13:17:02.300Z,10.47
2022-11-29T13:19:37.938Z,10.91
2022-11-29T13:22:23.063Z,10.34
2022-11-29T13:24:56.421Z,12.34
2022-11-29T13:27:31.941Z,14.49
2022-11-29T13:30:01.370Z,13.43
2022-11-29T13:32:36.055Z,13.46
2022-11-29T13:35:08.274Z,12.76
2022-11-29T13:37:43.820Z,12.82
2022-11-29T13:40:23.464Z,12.63
2022-11-29T13:43:01.121Z,12.44
2022-11-29T13:45:36.467Z,13.11
2022-11-29T13:48:27.824Z,12.36
2022-11-29T13:50:55.941Z,12.42
2022-11-29T13:53:45.249Z,12.51
2022-11-29T13:56:27.267Z,11.43
2022-11-29T13:59:01.115Z,11.89
2022-11-29T14:01:29.263Z,12.16
2022-11-29T14:04:07.216Z,11.86
2022-11-29T14:06:37.500Z,12.46
2022-11-29T14:09:29.549Z,11.59
2022-11-29T14:12:21.406Z,11.90
2022-11-29T14:14:53.933Z,11.86
2022-11-29T14:17:54.890Z,11.43
2022-11-29T14:20:53.946Z,11.65
2022-11-29T14:23:36.973Z,11.85
2022-11-29T14:26:29.766Z,11.78
2022-11-29T14:29:00.089Z,10.89
2022-11-29T14:31:50.597Z,11.28
2022-11-29T14:34:29.014Z,11.76
2022-11-29T14:37:04.387Z,13.01
2022-11-29T14:39:45.498Z,13.04
2022-11-29T14:42:16.758Z,12.78
2022-11-29T14:44:48.908Z,12.71
2022-11-29T14:47:25.333Z,14.58
2022-11-29T14:49:58.998Z,14.57
2022-11-29T14:52:34.665Z,14.09
2022-11-29T14:55:07.553Z,14.42
2022-11-29T14:57:55.041Z,13.56
2022-11-29T15:00:28.114Z,12.86
2022-11-29T15:02:58.841Z,13.18
2022-11-29T15:05:32.626Z,12.11
2022-11-29T15:08:08.584Z,12.67
2022-11-29T15:10:41.256Z,12.98
2022-11-29T15:13:12.229Z,12.03
2022-11-29T15:16:00.921Z,12.28
2022-11-29T15:18:53.919Z,12.04
2022-11-29T15:21:32.555Z,11.53
2022-11-29T15:24:05.482Z,11.58
2022-11-29T15:26:38.113Z,11.84
2022-11-29T15:29:22.822Z,12.22
2022-11-29T15:31:55.083Z,11.89
2022-11-29T15:34:30.754Z,12.50
2022-11-29T15:37:01.105Z,12.21
2022-11-29T15:39:32.509Z,12.16
2022-11-29T15:42:05.019Z,13.81
2022-11-29T15:44:32.103Z,15.86
2022-11-29T15:47:21.954Z,15.77
2022-11-29T15:49:49.172Z,14.96
2022-11-29T15:52:25.128Z,13.77
2022-11-29T15:54:59.078Z,13.59
2022-11-29T15:57:32.766Z,12.76
2022-11-29T16:00:02.281Z,13.47
2022-11-29T16:02:32.269Z,12.58
2022-11-29T16:05:03.244Z,12.51
2022-11-29T16:07:32.312Z,13.14
2022-11-29T16:10:07.418Z,13.73
2022-11-29T16:12:34.381Z,13.00
2022-11-29T16:15:03.081Z,12.68
2022-11-29T16:17:32.817Z,12.32
2022-11-29T16:20:24.115Z,11.91
2022-11-29T16:23:11.010Z,11.54
2022-11-29T16:25:53.692Z,10.85
2022-11-29T16:28:21.437Z,11.55
2022-11-29T16:30:49.951Z,10.60
2022-11-29T16:33:21.085Z,10.35
2022-11-29T16:35:51.439Z,10.30
2022-11-29T16:38:21.727Z,10.78
2022-11-29T16:41:31.091Z,11.31
2022-11-29T16:44:04.451Z,12.88
2022-11-29T16:46:37.733Z,13.13
2022-11-29T16:49:32.644Z,12.25
2022-11-29T16:52:00.135Z,12.10
2022-11-29T16:54:28.311Z,11.56
2022-11-29T16:56:57.380Z,12.90
2022-11-29T16:59:31.802Z,12.80
2022-11-29T17:02:00.107Z,12.68
2022-11-29T17:04:28.302Z,12.20
2022-11-29T17:06:57.366Z,12.39
2022-11-29T17:09:25.967Z,13.70
2022-11-29T17:12:00.109Z,13.37
2022-11-29T17:14:30.121Z,13.39
2022-11-29T17:17:01.981Z,12.82
2022-11-29T17:19:30.018Z,12.81
2022-11-29T17:21:59.293Z,13.21
2022-11-29T17:24:26.097Z,12.77
2022-11-29T17:26:54.212Z,12.18
2022-11-29T17:29:22.318Z,11.93
2022-11-29T17:31:51.601Z,12.57
2022-11-29T17:34:19.975Z,13.45
2022-11-29T17:36:50.984Z,14.68
2022-11-29T17:39:18.260Z,13.48
2022-11-29T17:41:47.558Z,12.85
2022-11-29T17:44:15.022Z,12.66
2022-11-29T17:46:44.719Z,13.16
2022-11-29T17:49:11.536Z,12.97
2022-11-29T17:51:57.458Z,13.15
2022-11-29T17:54:26.355Z,12.54
2022-11-29T17:56:54.645Z,12.42
2022-11-29T17:59:21.642Z,12.78
2022-11-29T18:01:52.471Z,13.68
2022-11-29T18:04:19.634Z,13.44
2022-11-29T18:06:47.038Z,12.85
2022-11-29T18:09:16.954Z,12.93
2022-11-29T18:11:49.994Z,12.70
2022-11-29T18:14:21.891Z,11.01
2022-11-29T18:16:52.313Z,10.42
2022-11-29T18:19:21.003Z,10.95
2022-11-29T18:21:48.799Z,12.24
2022-11-29T18:24:15.607Z,11.94
2022-11-29T18:26:42.589Z,12.67
2022-11-29T18:29:11.367Z,13.45
2022-11-29T18:31:42.390Z,14.74
2022-11-29T18:34:12.835Z,15.69
2022-11-29T18:36:41.747Z,15.60
2022-11-29T18:39:12.560Z,13.51
2022-11-29T18:41:43.355Z,12.13
2022-11-29T18:44:14.680Z,11.77
2022-11-29T18:46:43.089Z,11.33
2022-11-29T18:49:14.266Z,11.02
2022-11-29T18:51:45.265Z,10.87
2022-11-29T18:54:13.637Z,10.94
2022-11-29T18:56:41.195Z,11.64
2022-11-29T18:59:12.500Z,11.15
2022-11-29T19:01:41.643Z,11.14
2022-11-29T19:04:17.804Z,11.72
2022-11-29T19:06:48.577Z,11.35
2022-11-29T19:09:23.187Z,11.70
2022-11-29T19:11:52.888Z,11.78
2022-11-29T19:14:21.505Z,11.41
2022-11-29T19:16:50.648Z,11.91
2022-11-29T19:19:29.636Z,11.63
2022-11-29T19:22:09.455Z,11.54
2022-11-29T19:24:51.154Z,11.66
2022-11-29T19:27:26.195Z,11.40
2022-11-29T19:29:58.232Z,11.84
2022-11-29T19:32:31.768Z,10.45
2022-11-29T19:35:00.671Z,11.14
2022-11-29T19:37:32.987Z,11.47
2022-11-29T19:40:06.654Z,11.43
2022-11-29T19:42:39.400Z,10.61
2022-11-29T19:45:16.875Z,10.54
2022-11-29T19:47:54.934Z,10.65
2022-11-29T19:52:56.826Z,10.64
2022-11-29T19:55:29.881Z,10.45
2022-11-29T19:58:01.351Z,10.40
2022-11-29T20:00:28.544Z,10.49
2022-11-29T20:02:57.004Z,10.92
2022-11-29T20:05:26.239Z,10.16
2022-11-29T20:07:53.415Z,11.09
2022-11-29T20:10:20.385Z,11.61
2022-11-29T20:12:50.234Z,11.25
2022-11-29T20:15:17.608Z,10.69
2022-11-29T20:17:45.669Z,10.50
2022-11-29T20:20:13.887Z,10.44
2022-11-29T20:22:43.210Z,12.95
2022-11-29T20:25:14.490Z,12.47
2022-11-29T20:27:41.881Z,12.84
2022-11-29T20:30:13.290Z,12.44
2022-11-29T20:32:40.647Z,12.64
2022-11-29T20:35:13.382Z,12.84
2022-11-29T20:38:03.956Z,12.34
2022-11-29T20:40:38.799Z,11.90
2022-11-29T20:43:29.947Z,12.21
2022-11-29T20:53:33.081Z,12.49
2022-11-29T20:57:06.532Z,12.34
2022-11-29T21:00:30.581Z,12.03
2022-11-29T21:07:20.983Z,12.81
2022-11-29T21:13:03.010Z,13.27
2022-11-29T21:15:38.280Z,12.30
2022-11-29T21:25:41.155Z,12.14
2022-11-29T21:28:32.893Z,11.39
2022-11-29T21:31:13.923Z,12.01
2022-11-29T21:40:05.744Z,12.53
2022-11-29T21:42:59.516Z,13.57
2022-11-29T21:46:01.097Z,14.00
2022-11-29T21:48:42.600Z,13.84
2022-11-29T21:51:31.913Z,13.68
2022-11-29T21:54:05.816Z,13.17
2022-11-29T21:56:48.298Z,13.31
2022-11-29T21:59:22.499Z,11.40
2022-11-29T22:02:02.320Z,12.97
2022-11-29T22:04:32.998Z,12.59
2022-11-29T22:07:00.344Z,13.80
2022-11-29T22:09:31.908Z,14.02
2022-11-29T22:12:19.420Z,14.13
2022-11-29T22:14:52.521Z,15.10
2022-11-29T22:17:35.288Z,13.95
2022-11-29T22:20:11.123Z,14.12
2022-11-29T22:22:39.722Z,14.43
2022-11-29T22:25:15.114Z,15.47
2022-11-29T22:27:42.470Z,14.91
2022-11-29T22:30:19.012Z,14.54
2022-11-29T22:32:51.399Z,13.87
2022-11-29T22:35:20.864Z,14.25
2022-11-29T22:37:49.043Z,13.36
2022-11-29T22:40:19.466Z,13.17
2022-11-29T22:42:46.884Z,12.90
2022-11-29T22:45:17.773Z,13.20
2022-11-29T22:48:03.286Z,13.11
2022-11-29T22:50:30.654Z,13.58
2022-11-29T22:53:01.549Z,13.33
2022-11-29T22:55:29.370Z,13.58
2022-11-29T22:57:56.334Z,12.91
2022-11-29T23:00:24.211Z,13.32
2022-11-29T23:02:51.987Z,13.76
2022-11-29T23:05:27.209Z,13.20
2022-11-29T23:07:56.532Z,13.94
2022-11-29T23:10:26.192Z,13.71
2022-11-29T23:12:53.530Z,13.43
2022-11-29T23:15:20.732Z,12.89
2022-11-29T23:17:54.017Z,12.39
2022-11-29T23:20:26.409Z,12.97
2022-11-29T23:22:55.230Z,12.90
2022-11-29T23:25:23.723Z,12.77
2022-11-29T23:27:50.790Z,13.04
2022-11-29T23:30:18.382Z,13.06
2022-11-29T23:32:45.526Z,12.94
2022-11-29T23:35:13.889Z,13.12
2022-11-29T23:37:42.853Z,12.30
2022-11-29T23:40:11.896Z,12.03
2022-11-29T23:42:46.410Z,12.48
2022-11-29T23:45:15.822Z,12.89
2022-11-29T23:47:47.417Z,16.28
2022-11-29T23:50:22.246Z,22.43
2022-11-29T23:52:54.427Z,22.83
2022-11-29T23:55:30.527Z,21.72
